sensor_id;sensor_type;location;lat;lon;timestamp;P1;durP1;ratioP1;P2;durP2;ratioP2
23088;SDS011;11713;48.506;8.966;2023-01-13T00:02:15;2.10;;;0.70;;
23088;SDS011;11713;48.506;8.966;2023-01-13T00:04:41;2.70;;;0.70;;
23088;SDS011;11713;48.506;8.966;2023-01-13T00:07:07;1.50;;;0.60;;
23088;SDS011;11713;48.506;8.966;2023-01-13T00:09:32;1.43;;;0.87;;
23088;SDS011;11713;48.506;8.966;2023-01-13T00:11:58;2.47;;;0.83;;
23088;SDS011;11713;48.506;8.966;2023-01-13T00:14:24;0.80;;;0.70;;
23088;SDS011;11713;48.506;8.966;2023-01-13T00:16:51;1.83;;;0.80;;
23088;SDS011;11713;48.506;8.966;2023-01-13T00:19:16;1.87;;;0.80;;
23088;SDS011;11713;48.506;8.966;2023-01-13T00:21:42;3.00;;;0.80;;
23088;SDS011;11713;48.506;8.966;2023-01-13T00:24:08;2.20;;;0.70;;
23088;SDS011;11713;48.506;8.966;2023-01-13T00:26:35;2.27;;;0.77;;
23088;SDS011;11713;48.506;8.966;2023-01-13T00:29:01;2.97;;;0.83;;
23088;SDS011;11713;48.506;8.966;2023-01-13T00:31:28;2.20;;;0.80;;
23088;SDS011;11713;48.506;8.966;2023-01-13T00:33:57;2.60;;;0.80;;
23088;SDS011;11713;48.506;8.966;2023-01-13T00:36:24;1.33;;;0.67;;
23088;SDS011;11713;48.506;8.966;2023-01-13T00:38:51;0.90;;;0.70;;
23088;SDS011;11713;48.506;8.966;2023-01-13T00:41:18;1.90;;;0.70;;
23088;SDS011;11713;48.506;8.966;2023-01-13T00:43:46;0.97;;;0.60;;
23088;SDS011;11713;48.506;8.966;2023-01-13T00:46:13;2.10;;;0.60;;
23088;SDS011;11713;48.506;8.966;2023-01-13T00:48:40;0.53;;;0.53;;
23088;SDS011;11713;48.506;8.966;2023-01-13T00:51:07;0.70;;;0.70;;
23088;SDS011;11713;48.506;8.966;2023-01-13T00:53:42;1.30;;;0.60;;
23088;SDS011;11713;48.506;8.966;2023-01-13T00:56:17;1.73;;;0.87;;
23088;SDS011;11713;48.506;8.966;2023-01-13T00:58:48;0.63;;;0.50;;
23088;SDS011;11713;48.506;8.966;2023-01-13T01:01:15;0.77;;;0.60;;
23088;SDS011;11713;48.506;8.966;2023-01-13T01:03:46;3.23;;;0.90;;
23088;SDS011;11713;48.506;8.966;2023-01-13T01:06:14;2.40;;;0.70;;
23088;SDS011;11713;48.506;8.966;2023-01-13T01:08:44;1.93;;;0.90;;
23088;SDS011;11713;48.506;8.966;2023-01-13T01:11:14;2.23;;;0.80;;
23088;SDS011;11713;48.506;8.966;2023-01-13T01:13:45;4.00;;;0.80;;
23088;SDS011;11713;48.506;8.966;2023-01-13T01:16:13;1.43;;;0.70;;
23088;SDS011;11713;48.506;8.966;2023-01-13T01:18:41;4.03;;;1.10;;
23088;SDS011;11713;48.506;8.966;2023-01-13T01:21:09;2.00;;;1.00;;
23088;SDS011;11713;48.506;8.966;2023-01-13T01:23:36;1.00;;;0.80;;
23088;SDS011;11713;48.506;8.966;2023-01-13T01:26:04;2.40;;;0.93;;
23088;SDS011;11713;48.506;8.966;2023-01-13T01:28:41;1.67;;;0.80;;
23088;SDS011;11713;48.506;8.966;2023-01-13T01:31:08;0.60;;;0.60;;
23088;SDS011;11713;48.506;8.966;2023-01-13T01:33:37;2.73;;;1.00;;
23088;SDS011;11713;48.506;8.966;2023-01-13T01:36:05;2.07;;;0.90;;
23088;SDS011;11713;48.506;8.966;2023-01-13T01:38:31;2.00;;;0.70;;
23088;SDS011;11713;48.506;8.966;2023-01-13T01:40:57;2.73;;;0.70;;
23088;SDS011;11713;48.506;8.966;2023-01-13T01:46:33;1.23;;;0.73;;
23088;SDS011;11713;48.506;8.966;2023-01-13T01:49:15;3.00;;;0.80;;
23088;SDS011;11713;48.506;8.966;2023-01-13T01:51:44;1.43;;;0.70;;
23088;SDS011;11713;48.506;8.966;2023-01-13T01:54:19;1.57;;;0.77;;
23088;SDS011;11713;48.506;8.966;2023-01-13T01:56:49;1.13;;;0.73;;
23088;SDS011;11713;48.506;8.966;2023-01-13T01:59:15;0.83;;;0.70;;
23088;SDS011;11713;48.506;8.966;2023-01-13T02:01:41;2.30;;;0.87;;
23088;SDS011;11713;48.506;8.966;2023-01-13T02:04:13;0.97;;;0.70;;
23088;SDS011;11713;48.506;8.966;2023-01-13T02:06:43;1.80;;;1.00;;
23088;SDS011;11713;48.506;8.966;2023-01-13T02:09:11;1.97;;;0.90;;
23088;SDS011;11713;48.506;8.966;2023-01-13T02:11:38;3.27;;;0.80;;
23088;SDS011;11713;48.506;8.966;2023-01-13T02:14:24;2.90;;;1.00;;
23088;SDS011;11713;48.506;8.966;2023-01-13T02:22:37;1.70;;;0.80;;
23088;SDS011;11713;48.506;8.966;2023-01-13T02:28:20;2.07;;;0.70;;
23088;SDS011;11713;48.506;8.966;2023-01-13T02:31:05;2.87;;;0.70;;
23088;SDS011;11713;48.506;8.966;2023-01-13T02:36:49;1.10;;;0.77;;
23088;SDS011;11713;48.506;8.966;2023-01-13T02:42:24;0.90;;;0.63;;
23088;SDS011;11713;48.506;8.966;2023-01-13T02:45:16;3.87;;;1.27;;
23088;SDS011;11713;48.506;8.966;2023-01-13T02:47:47;1.17;;;0.73;;
23088;SDS011;11713;48.506;8.966;2023-01-13T02:50:16;3.87;;;1.07;;
23088;SDS011;11713;48.506;8.966;2023-01-13T02:52:51;1.80;;;0.50;;
23088;SDS011;11713;48.506;8.966;2023-01-13T02:55:27;1.27;;;0.57;;
23088;SDS011;11713;48.506;8.966;2023-01-13T02:58:07;1.50;;;0.70;;
23088;SDS011;11713;48.506;8.966;2023-01-13T03:00:37;0.80;;;0.50;;
23088;SDS011;11713;48.506;8.966;2023-01-13T03:03:03;1.10;;;0.60;;
23088;SDS011;11713;48.506;8.966;2023-01-13T03:05:29;0.70;;;0.50;;
23088;SDS011;11713;48.506;8.966;2023-01-13T03:11:03;3.40;;;0.93;;
23088;SDS011;11713;48.506;8.966;2023-01-13T03:16:33;0.80;;;0.50;;
23088;SDS011;11713;48.506;8.966;2023-01-13T03:19:13;0.90;;;0.73;;
23088;SDS011;11713;48.506;8.966;2023-01-13T03:24:43;2.20;;;0.80;;
23088;SDS011;11713;48.506;8.966;2023-01-13T03:27:25;2.07;;;0.70;;
23088;SDS011;11713;48.506;8.966;2023-01-13T03:30:11;1.00;;;0.60;;
23088;SDS011;11713;48.506;8.966;2023-01-13T03:33:14;1.23;;;0.57;;
23088;SDS011;11713;48.506;8.966;2023-01-13T03:35:50;1.37;;;0.53;;
23088;SDS011;11713;48.506;8.966;2023-01-13T03:38:27;2.37;;;0.70;;
23088;SDS011;11713;48.506;8.966;2023-01-13T03:41:04;1.20;;;0.57;;
23088;SDS011;11713;48.506;8.966;2023-01-13T03:43:35;2.10;;;0.70;;
23088;SDS011;11713;48.506;8.966;2023-01-13T03:46:46;0.83;;;0.50;;
23088;SDS011;11713;48.506;8.966;2023-01-13T03:49:17;2.20;;;0.97;;
23088;SDS011;11713;48.506;8.966;2023-01-13T03:51:47;1.30;;;0.60;;
23088;SDS011;11713;48.506;8.966;2023-01-13T03:54:18;1.67;;;0.70;;
23088;SDS011;11713;48.506;8.966;2023-01-13T03:56:49;1.33;;;0.80;;
23088;SDS011;11713;48.506;8.966;2023-01-13T03:59:20;2.43;;;0.83;;
23088;SDS011;11713;48.506;8.966;2023-01-13T04:01:58;1.10;;;0.80;;
23088;SDS011;11713;48.506;8.966;2023-01-13T04:07:22;1.90;;;0.80;;
23088;SDS011;11713;48.506;8.966;2023-01-13T04:09:58;1.53;;;0.60;;
23088;SDS011;11713;48.506;8.966;2023-01-13T04:12:30;3.10;;;0.60;;
23088;SDS011;11713;48.506;8.966;2023-01-13T04:15:17;0.83;;;0.80;;
23088;SDS011;11713;48.506;8.966;2023-01-13T04:17:45;2.90;;;0.90;;
23088;SDS011;11713;48.506;8.966;2023-01-13T04:20:11;1.27;;;0.97;;
23088;SDS011;11713;48.506;8.966;2023-01-13T04:22:37;2.40;;;0.97;;
23088;SDS011;11713;48.506;8.966;2023-01-13T04:25:03;1.03;;;0.70;;
23088;SDS011;11713;48.506;8.966;2023-01-13T04:27:29;1.83;;;0.60;;
23088;SDS011;11713;48.506;8.966;2023-01-13T04:29:55;3.40;;;1.90;;
23088;SDS011;11713;48.506;8.966;2023-01-13T04:32:20;4.50;;;2.50;;
23088;SDS011;11713;48.506;8.966;2023-01-13T04:34:46;6.03;;;2.57;;
23088;SDS011;11713;48.506;8.966;2023-01-13T04:37:12;4.27;;;1.87;;
23088;SDS011;11713;48.506;8.966;2023-01-13T04:39:39;3.73;;;1.67;;
23088;SDS011;11713;48.506;8.966;2023-01-13T04:42:05;9.07;;;3.23;;
23088;SDS011;11713;48.506;8.966;2023-01-13T04:44:31;3.20;;;1.90;;
23088;SDS011;11713;48.506;8.966;2023-01-13T04:47:03;6.20;;;2.23;;
23088;SDS011;11713;48.506;8.966;2023-01-13T04:49:29;5.63;;;2.73;;
23088;SDS011;11713;48.506;8.966;2023-01-13T04:51:55;6.87;;;2.57;;
23088;SDS011;11713;48.506;8.966;2023-01-13T04:54:22;6.90;;;3.33;;
23088;SDS011;11713;48.506;8.966;2023-01-13T04:56:48;4.67;;;2.70;;
23088;SDS011;11713;48.506;8.966;2023-01-13T04:59:14;2.80;;;1.30;;
23088;SDS011;11713;48.506;8.966;2023-01-13T05:01:39;2.80;;;1.43;;
23088;SDS011;11713;48.506;8.966;2023-01-13T05:04:05;3.03;;;1.60;;
23088;SDS011;11713;48.506;8.966;2023-01-13T05:06:32;0.77;;;0.70;;
23088;SDS011;11713;48.506;8.966;2023-01-13T05:08:58;1.37;;;1.10;;
23088;SDS011;11713;48.506;8.966;2023-01-13T05:11:24;1.20;;;0.77;;
23088;SDS011;11713;48.506;8.966;2023-01-13T05:14:08;2.40;;;1.40;;
23088;SDS011;11713;48.506;8.966;2023-01-13T05:16:54;3.70;;;1.83;;
23088;SDS011;11713;48.506;8.966;2023-01-13T05:19:27;0.90;;;0.77;;
23088;SDS011;11713;48.506;8.966;2023-01-13T05:21:59;2.93;;;1.20;;
23088;SDS011;11713;48.506;8.966;2023-01-13T05:24:43;1.93;;;1.10;;
23088;SDS011;11713;48.506;8.966;2023-01-13T05:27:28;2.57;;;1.27;;
23088;SDS011;11713;48.506;8.966;2023-01-13T05:29:55;2.40;;;0.90;;
23088;SDS011;11713;48.506;8.966;2023-01-13T05:32:21;1.63;;;1.00;;
23088;SDS011;11713;48.506;8.966;2023-01-13T05:34:47;2.90;;;1.00;;
23088;SDS011;11713;48.506;8.966;2023-01-13T05:37:13;1.70;;;1.17;;
23088;SDS011;11713;48.506;8.966;2023-01-13T05:39:39;1.53;;;0.80;;
23088;SDS011;11713;48.506;8.966;2023-01-13T05:42:24;0.97;;;0.50;;
23088;SDS011;11713;48.506;8.966;2023-01-13T05:45:09;1.23;;;0.70;;
23088;SDS011;11713;48.506;8.966;2023-01-13T05:47:35;0.77;;;0.63;;
23088;SDS011;11713;48.506;8.966;2023-01-13T05:50:01;1.57;;;0.83;;
23088;SDS011;11713;48.506;8.966;2023-01-13T05:52:28;1.37;;;0.70;;
23088;SDS011;11713;48.506;8.966;2023-01-13T05:54:53;1.20;;;0.60;;
23088;SDS011;11713;48.506;8.966;2023-01-13T05:57:19;0.53;;;0.50;;
23088;SDS011;11713;48.506;8.966;2023-01-13T05:59:45;1.20;;;0.40;;
23088;SDS011;11713;48.506;8.966;2023-01-13T06:02:11;2.30;;;0.60;;
23088;SDS011;11713;48.506;8.966;2023-01-13T06:04:36;2.83;;;0.90;;
23088;SDS011;11713;48.506;8.966;2023-01-13T06:07:02;0.93;;;0.80;;
23088;SDS011;11713;48.506;8.966;2023-01-13T06:09:28;2.57;;;0.90;;
23088;SDS011;11713;48.506;8.966;2023-01-13T06:11:54;1.57;;;1.00;;
23088;SDS011;11713;48.506;8.966;2023-01-13T06:14:20;1.77;;;1.00;;
23088;SDS011;11713;48.506;8.966;2023-01-13T06:16:46;2.20;;;1.20;;
23088;SDS011;11713;48.506;8.966;2023-01-13T06:19:11;1.93;;;1.30;;
23088;SDS011;11713;48.506;8.966;2023-01-13T06:21:39;1.03;;;0.60;;
23088;SDS011;11713;48.506;8.966;2023-01-13T06:24:06;0.97;;;0.70;;
23088;SDS011;11713;48.506;8.966;2023-01-13T06:26:34;2.27;;;0.90;;
23088;SDS011;11713;48.506;8.966;2023-01-13T06:29:06;1.20;;;0.80;;
23088;SDS011;11713;48.506;8.966;2023-01-13T06:31:35;0.77;;;0.60;;
23088;SDS011;11713;48.506;8.966;2023-01-13T06:34:04;0.53;;;0.50;;
23088;SDS011;11713;48.506;8.966;2023-01-13T06:36:40;0.40;;;0.40;;
23088;SDS011;11713;48.506;8.966;2023-01-13T06:39:12;1.20;;;0.60;;
23088;SDS011;11713;48.506;8.966;2023-01-13T06:41:43;0.60;;;0.60;;
23088;SDS011;11713;48.506;8.966;2023-01-13T06:44:30;1.27;;;0.60;;
23088;SDS011;11713;48.506;8.966;2023-01-13T06:46:56;0.60;;;0.60;;
23088;SDS011;11713;48.506;8.966;2023-01-13T06:49:22;0.77;;;0.60;;
23088;SDS011;11713;48.506;8.966;2023-01-13T06:51:47;1.00;;;0.70;;
23088;SDS011;11713;48.506;8.966;2023-01-13T06:54:13;1.10;;;0.67;;
23088;SDS011;11713;48.506;8.966;2023-01-13T06:56:39;1.43;;;0.87;;
23088;SDS011;11713;48.506;8.966;2023-01-13T06:59:05;1.00;;;0.57;;
23088;SDS011;11713;48.506;8.966;2023-01-13T07:01:30;1.33;;;0.70;;
23088;SDS011;11713;48.506;8.966;2023-01-13T07:03:56;1.23;;;0.70;;
23088;SDS011;11713;48.506;8.966;2023-01-13T07:06:22;0.43;;;0.43;;
23088;SDS011;11713;48.506;8.966;2023-01-13T07:08:48;2.70;;;0.60;;
23088;SDS011;11713;48.506;8.966;2023-01-13T07:11:14;1.97;;;1.00;;
23088;SDS011;11713;48.506;8.966;2023-01-13T07:13:40;1.37;;;1.00;;
23088;SDS011;11713;48.506;8.966;2023-01-13T07:16:24;6.10;;;3.30;;
23088;SDS011;11713;48.506;8.966;2023-01-13T07:18:52;9.07;;;3.37;;
23088;SDS011;11713;48.506;8.966;2023-01-13T07:21:18;1.63;;;1.00;;
23088;SDS011;11713;48.506;8.966;2023-01-13T07:23:44;0.87;;;0.67;;
23088;SDS011;11713;48.506;8.966;2023-01-13T07:26:11;0.90;;;0.60;;
23088;SDS011;11713;48.506;8.966;2023-01-13T07:28:38;0.77;;;0.50;;
23088;SDS011;11713;48.506;8.966;2023-01-13T07:31:04;1.13;;;0.57;;
23088;SDS011;11713;48.506;8.966;2023-01-13T07:33:36;1.53;;;0.50;;
23088;SDS011;11713;48.506;8.966;2023-01-13T07:36:03;1.37;;;0.53;;
23088;SDS011;11713;48.506;8.966;2023-01-13T07:38:30;1.50;;;0.80;;
23088;SDS011;11713;48.506;8.966;2023-01-13T07:40:57;0.70;;;0.70;;
23088;SDS011;11713;48.506;8.966;2023-01-13T07:43:43;0.70;;;0.60;;
23088;SDS011;11713;48.506;8.966;2023-01-13T07:46:09;0.40;;;0.40;;
23088;SDS011;11713;48.506;8.966;2023-01-13T07:48:35;0.60;;;0.60;;
23088;SDS011;11713;48.506;8.966;2023-01-13T07:51:01;1.13;;;0.70;;
23088;SDS011;11713;48.506;8.966;2023-01-13T07:53:32;1.43;;;0.70;;
23088;SDS011;11713;48.506;8.966;2023-01-13T07:55:59;1.03;;;0.80;;
23088;SDS011;11713;48.506;8.966;2023-01-13T07:58:26;1.70;;;0.97;;
23088;SDS011;11713;48.506;8.966;2023-01-13T08:00:53;0.80;;;0.70;;
23088;SDS011;11713;48.506;8.966;2023-01-13T08:03:20;1.40;;;0.90;;
23088;SDS011;11713;48.506;8.966;2023-01-13T08:05:47;0.97;;;0.80;;
23088;SDS011;11713;48.506;8.966;2023-01-13T08:08:13;0.87;;;0.60;;
23088;SDS011;11713;48.506;8.966;2023-01-13T08:10:39;1.57;;;0.80;;
23088;SDS011;11713;48.506;8.966;2023-01-13T08:13:13;1.17;;;0.70;;
23088;SDS011;11713;48.506;8.966;2023-01-13T08:15:46;2.07;;;1.03;;
23088;SDS011;11713;48.506;8.966;2023-01-13T08:18:13;2.93;;;1.33;;
23088;SDS011;11713;48.506;8.966;2023-01-13T08:20:39;1.17;;;0.80;;
23088;SDS011;11713;48.506;8.966;2023-01-13T08:23:05;0.63;;;0.53;;
23088;SDS011;11713;48.506;8.966;2023-01-13T08:25:31;1.13;;;0.70;;
23088;SDS011;11713;48.506;8.966;2023-01-13T08:27:57;2.50;;;0.70;;
23088;SDS011;11713;48.506;8.966;2023-01-13T08:30:26;1.93;;;0.90;;
23088;SDS011;11713;48.506;8.966;2023-01-13T08:32:52;1.10;;;1.00;;
23088;SDS011;11713;48.506;8.966;2023-01-13T08:35:18;2.23;;;1.10;;
23088;SDS011;11713;48.506;8.966;2023-01-13T08:37:45;2.03;;;1.20;;
23088;SDS011;11713;48.506;8.966;2023-01-13T08:40:12;0.93;;;0.80;;
23088;SDS011;11713;48.506;8.966;2023-01-13T08:42:39;0.83;;;0.73;;
23088;SDS011;11713;48.506;8.966;2023-01-13T08:45:06;2.23;;;1.10;;
23088;SDS011;11713;48.506;8.966;2023-01-13T08:47:32;1.10;;;1.00;;
23088;SDS011;11713;48.506;8.966;2023-01-13T08:49:58;1.00;;;0.80;;
23088;SDS011;11713;48.506;8.966;2023-01-13T08:52:24;1.37;;;0.90;;
23088;SDS011;11713;48.506;8.966;2023-01-13T08:54:50;1.67;;;1.10;;
23088;SDS011;11713;48.506;8.966;2023-01-13T08:57:16;1.00;;;0.80;;
23088;SDS011;11713;48.506;8.966;2023-01-13T08:59:45;13.37;;;7.90;;
23088;SDS011;11713;48.506;8.966;2023-01-13T09:02:14;1.47;;;1.07;;
23088;SDS011;11713;48.506;8.966;2023-01-13T09:04:42;0.70;;;0.70;;
23088;SDS011;11713;48.506;8.966;2023-01-13T09:07:08;0.60;;;0.60;;
23088;SDS011;11713;48.506;8.966;2023-01-13T09:09:34;0.73;;;0.50;;
23088;SDS011;11713;48.506;8.966;2023-01-13T09:12:00;3.33;;;1.40;;
23088;SDS011;11713;48.506;8.966;2023-01-13T09:14:45;2.57;;;1.10;;
23088;SDS011;11713;48.506;8.966;2023-01-13T09:17:11;3.17;;;1.80;;
23088;SDS011;11713;48.506;8.966;2023-01-13T09:19:38;2.63;;;1.90;;
23088;SDS011;11713;48.506;8.966;2023-01-13T09:22:04;4.47;;;2.70;;
23088;SDS011;11713;48.506;8.966;2023-01-13T09:24:30;4.83;;;2.50;;
23088;SDS011;11713;48.506;8.966;2023-01-13T09:26:56;3.37;;;2.20;;
23088;SDS011;11713;48.506;8.966;2023-01-13T09:29:22;1.17;;;0.90;;
23088;SDS011;11713;48.506;8.966;2023-01-13T09:31:48;1.23;;;1.13;;
23088;SDS011;11713;48.506;8.966;2023-01-13T09:34:15;1.07;;;0.80;;
23088;SDS011;11713;48.506;8.966;2023-01-13T09:37:09;0.70;;;0.70;;
23088;SDS011;11713;48.506;8.966;2023-01-13T09:39:35;0.60;;;0.60;;
23088;SDS011;11713;48.506;8.966;2023-01-13T09:42:03;0.73;;;0.73;;
23088;SDS011;11713;48.506;8.966;2023-01-13T09:45:21;1.33;;;0.50;;
23088;SDS011;11713;48.506;8.966;2023-01-13T09:52:56;0.80;;;0.53;;
23088;SDS011;11713;48.506;8.966;2023-01-13T09:55:24;0.60;;;0.60;;
23088;SDS011;11713;48.506;8.966;2023-01-13T09:57:59;1.73;;;0.70;;
23088;SDS011;11713;48.506;8.966;2023-01-13T10:00:27;0.40;;;0.40;;
23088;SDS011;11713;48.506;8.966;2023-01-13T10:03:07;0.40;;;0.40;;
23088;SDS011;11713;48.506;8.966;2023-01-13T10:05:53;0.70;;;0.57;;
23088;SDS011;11713;48.506;8.966;2023-01-13T10:08:39;0.50;;;0.50;;
23088;SDS011;11713;48.506;8.966;2023-01-13T10:11:15;0.73;;;0.50;;
23088;SDS011;11713;48.506;8.966;2023-01-13T10:14:23;1.30;;;0.70;;
23088;SDS011;11713;48.506;8.966;2023-01-13T10:22:43;1.23;;;0.40;;
23088;SDS011;11713;48.506;8.966;2023-01-13T10:27:49;0.57;;;0.57;;
23088;SDS011;11713;48.506;8.966;2023-01-13T10:30:34;3.00;;;0.80;;
23088;SDS011;11713;48.506;8.966;2023-01-13T10:33:17;0.80;;;0.80;;
23088;SDS011;11713;48.506;8.966;2023-01-13T10:35:49;0.43;;;0.43;;
23088;SDS011;11713;48.506;8.966;2023-01-13T10:38:18;1.53;;;1.00;;
23088;SDS011;11713;48.506;8.966;2023-01-13T10:40:51;1.53;;;0.70;;
23088;SDS011;11713;48.506;8.966;2023-01-13T10:43:26;0.73;;;0.50;;
23088;SDS011;11713;48.506;8.966;2023-01-13T10:45:56;1.30;;;0.50;;
23088;SDS011;11713;48.506;8.966;2023-01-13T10:48:22;0.80;;;0.50;;
23088;SDS011;11713;48.506;8.966;2023-01-13T10:51:10;0.80;;;0.60;;
23088;SDS011;11713;48.506;8.966;2023-01-13T10:53:45;0.90;;;0.60;;
23088;SDS011;11713;48.506;8.966;2023-01-13T10:56:19;0.83;;;0.60;;
23088;SDS011;11713;48.506;8.966;2023-01-13T10:58:47;0.47;;;0.43;;
23088;SDS011;11713;48.506;8.966;2023-01-13T11:01:23;2.00;;;0.57;;
23088;SDS011;11713;48.506;8.966;2023-01-13T11:03:51;1.53;;;0.40;;
23088;SDS011;11713;48.506;8.966;2023-01-13T11:06:26;2.40;;;1.10;;
23088;SDS011;11713;48.506;8.966;2023-01-13T11:09:01;2.20;;;1.50;;
23088;SDS011;11713;48.506;8.966;2023-01-13T11:14:17;0.30;;;0.30;;
23088;SDS011;11713;48.506;8.966;2023-01-13T11:17:22;4.50;;;1.07;;
23088;SDS011;11713;48.506;8.966;2023-01-13T11:22:55;1.10;;;0.80;;
23088;SDS011;11713;48.506;8.966;2023-01-13T11:25:26;4.97;;;3.00;;
23088;SDS011;11713;48.506;8.966;2023-01-13T11:30:57;0.47;;;0.43;;
23088;SDS011;11713;48.506;8.966;2023-01-13T11:36:36;0.83;;;0.50;;
23088;SDS011;11713;48.506;8.966;2023-01-13T11:41:52;1.67;;;0.60;;
23088;SDS011;11713;48.506;8.966;2023-01-13T11:44:44;1.33;;;0.70;;
23088;SDS011;11713;48.506;8.966;2023-01-13T11:47:20;4.37;;;2.63;;
23088;SDS011;11713;48.506;8.966;2023-01-13T11:49:48;1.97;;;1.50;;
23088;SDS011;11713;48.506;8.966;2023-01-13T12:00:45;1.57;;;0.70;;
23088;SDS011;11713;48.506;8.966;2023-01-13T12:09:14;2.50;;;0.47;;
23088;SDS011;11713;48.506;8.966;2023-01-13T12:17:44;1.43;;;0.80;;
23088;SDS011;11713;48.506;8.966;2023-01-13T12:25:58;2.30;;;0.80;;
23088;SDS011;11713;48.506;8.966;2023-01-13T12:28:53;1.00;;;0.73;;
23088;SDS011;11713;48.506;8.966;2023-01-13T12:31:21;1.97;;;0.60;;
23088;SDS011;11713;48.506;8.966;2023-01-13T12:33:59;3.00;;;0.87;;
23088;SDS011;11713;48.506;8.966;2023-01-13T12:42:30;2.43;;;0.83;;
23088;SDS011;11713;48.506;8.966;2023-01-13T12:45:28;8.27;;;1.77;;
23088;SDS011;11713;48.506;8.966;2023-01-13T12:47:55;5.53;;;2.30;;
23088;SDS011;11713;48.506;8.966;2023-01-13T12:52:51;4.50;;;1.00;;
23088;SDS011;11713;48.506;8.966;2023-01-13T12:57:57;2.90;;;1.33;;
23088;SDS011;11713;48.506;8.966;2023-01-13T13:00:30;11.33;;;4.57;;
23088;SDS011;11713;48.506;8.966;2023-01-13T13:03:29;8.03;;;3.33;;
23088;SDS011;11713;48.506;8.966;2023-01-13T13:14:00;6.07;;;1.17;;
23088;SDS011;11713;48.506;8.966;2023-01-13T13:30:01;3.07;;;1.60;;
23088;SDS011;11713;48.506;8.966;2023-01-13T13:38:51;6.57;;;1.27;;
23088;SDS011;11713;48.506;8.966;2023-01-13T13:42:05;2.27;;;1.00;;
23088;SDS011;11713;48.506;8.966;2023-01-13T13:45:20;4.10;;;1.20;;
23088;SDS011;11713;48.506;8.966;2023-01-13T13:50:48;5.50;;;1.70;;
23088;SDS011;11713;48.506;8.966;2023-01-13T13:53:20;5.30;;;1.30;;
23088;SDS011;11713;48.506;8.966;2023-01-13T13:55:55;4.83;;;1.60;;
23088;SDS011;11713;48.506;8.966;2023-01-13T13:58:23;4.37;;;1.70;;
23088;SDS011;11713;48.506;8.966;2023-01-13T14:00:53;5.60;;;1.40;;
23088;SDS011;11713;48.506;8.966;2023-01-13T14:03:27;4.83;;;1.40;;
23088;SDS011;11713;48.506;8.966;2023-01-13T14:05:59;5.40;;;1.60;;
23088;SDS011;11713;48.506;8.966;2023-01-13T14:08:28;5.30;;;1.77;;
23088;SDS011;11713;48.506;8.966;2023-01-13T14:10:55;6.80;;;1.90;;
23088;SDS011;11713;48.506;8.966;2023-01-13T14:13:22;3.70;;;1.10;;
23088;SDS011;11713;48.506;8.966;2023-01-13T14:15:54;4.10;;;1.37;;
23088;SDS011;11713;48.506;8.966;2023-01-13T14:18:27;4.13;;;1.30;;
23088;SDS011;11713;48.506;8.966;2023-01-13T14:23:30;6.67;;;1.90;;
23088;SDS011;11713;48.506;8.966;2023-01-13T14:26:02;1.50;;;0.77;;
23088;SDS011;11713;48.506;8.966;2023-01-13T14:28:33;4.97;;;1.47;;
23088;SDS011;11713;48.506;8.966;2023-01-13T14:31:01;6.03;;;2.67;;
23088;SDS011;11713;48.506;8.966;2023-01-13T14:33:40;6.00;;;2.30;;
23088;SDS011;11713;48.506;8.966;2023-01-13T14:41:26;2.83;;;1.17;;
23088;SDS011;11713;48.506;8.966;2023-01-13T14:43:57;5.83;;;1.50;;
23088;SDS011;11713;48.506;8.966;2023-01-13T14:46:38;4.07;;;1.10;;
23088;SDS011;11713;48.506;8.966;2023-01-13T14:49:28;3.53;;;1.30;;
23088;SDS011;11713;48.506;8.966;2023-01-13T14:52:06;3.37;;;1.10;;
23088;SDS011;11713;48.506;8.966;2023-01-13T14:59:53;3.07;;;1.17;;
23088;SDS011;11713;48.506;8.966;2023-01-13T15:04:55;2.63;;;1.40;;
23088;SDS011;11713;48.506;8.966;2023-01-13T15:07:26;2.83;;;1.23;;
23088;SDS011;11713;48.506;8.966;2023-01-13T15:09:54;4.83;;;1.60;;
23088;SDS011;11713;48.506;8.966;2023-01-13T15:12:38;3.40;;;1.40;;
23088;SDS011;11713;48.506;8.966;2023-01-13T15:15:06;5.00;;;0.90;;
23088;SDS011;11713;48.506;8.966;2023-01-13T15:17:45;4.13;;;1.20;;
23088;SDS011;11713;48.506;8.966;2023-01-13T15:20:11;10.60;;;4.40;;
23088;SDS011;11713;48.506;8.966;2023-01-13T15:22:38;7.73;;;3.60;;
23088;SDS011;11713;48.506;8.966;2023-01-13T15:25:04;7.23;;;2.37;;
23088;SDS011;11713;48.506;8.966;2023-01-13T15:27:30;5.70;;;1.80;;
23088;SDS011;11713;48.506;8.966;2023-01-13T15:29:56;4.13;;;1.47;;
23088;SDS011;11713;48.506;8.966;2023-01-13T15:32:22;5.27;;;1.50;;
23088;SDS011;11713;48.506;8.966;2023-01-13T15:34:48;5.93;;;1.57;;
23088;SDS011;11713;48.506;8.966;2023-01-13T15:37:14;4.77;;;1.50;;
23088;SDS011;11713;48.506;8.966;2023-01-13T15:39:45;5.20;;;1.90;;
23088;SDS011;11713;48.506;8.966;2023-01-13T15:42:16;3.87;;;1.50;;
23088;SDS011;11713;48.506;8.966;2023-01-13T15:45:00;2.97;;;1.30;;
23088;SDS011;11713;48.506;8.966;2023-01-13T15:47:45;4.83;;;1.50;;
23088;SDS011;11713;48.506;8.966;2023-01-13T15:50:13;6.73;;;1.47;;
23088;SDS011;11713;48.506;8.966;2023-01-13T15:52:41;4.17;;;1.90;;
23088;SDS011;11713;48.506;8.966;2023-01-13T15:55:07;4.93;;;1.50;;
23088;SDS011;11713;48.506;8.966;2023-01-13T15:57:34;2.53;;;1.17;;
23088;SDS011;11713;48.506;8.966;2023-01-13T16:00:04;5.30;;;1.50;;
23088;SDS011;11713;48.506;8.966;2023-01-13T16:02:36;3.77;;;1.80;;
23088;SDS011;11713;48.506;8.966;2023-01-13T16:05:01;5.97;;;2.03;;
23088;SDS011;11713;48.506;8.966;2023-01-13T16:07:28;4.60;;;1.90;;
23088;SDS011;11713;48.506;8.966;2023-01-13T16:09:54;3.53;;;1.83;;
23088;SDS011;11713;48.506;8.966;2023-01-13T16:12:20;4.57;;;2.50;;
23088;SDS011;11713;48.506;8.966;2023-01-13T16:14:46;5.13;;;3.00;;
23088;SDS011;11713;48.506;8.966;2023-01-13T16:17:19;7.23;;;3.03;;
23088;SDS011;11713;48.506;8.966;2023-01-13T16:19:47;5.70;;;2.90;;
23088;SDS011;11713;48.506;8.966;2023-01-13T16:22:13;4.53;;;1.67;;
23088;SDS011;11713;48.506;8.966;2023-01-13T16:24:40;4.00;;;1.50;;
23088;SDS011;11713;48.506;8.966;2023-01-13T16:27:10;3.77;;;1.47;;
23088;SDS011;11713;48.506;8.966;2023-01-13T16:29:42;4.27;;;2.00;;
23088;SDS011;11713;48.506;8.966;2023-01-13T16:32:09;4.50;;;2.93;;
23088;SDS011;11713;48.506;8.966;2023-01-13T16:34:34;6.40;;;3.67;;
23088;SDS011;11713;48.506;8.966;2023-01-13T16:37:01;6.13;;;2.20;;
23088;SDS011;11713;48.506;8.966;2023-01-13T16:39:26;6.60;;;2.20;;
23088;SDS011;11713;48.506;8.966;2023-01-13T16:41:52;4.43;;;2.20;;
23088;SDS011;11713;48.506;8.966;2023-01-13T16:44:18;5.23;;;2.93;;
23088;SDS011;11713;48.506;8.966;2023-01-13T16:46:44;6.93;;;3.33;;
23088;SDS011;11713;48.506;8.966;2023-01-13T16:49:12;6.13;;;2.47;;
23088;SDS011;11713;48.506;8.966;2023-01-13T16:51:39;4.83;;;1.87;;
23088;SDS011;11713;48.506;8.966;2023-01-13T16:54:05;5.50;;;2.03;;
23088;SDS011;11713;48.506;8.966;2023-01-13T16:56:32;9.03;;;2.90;;
23088;SDS011;11713;48.506;8.966;2023-01-13T16:59:05;5.83;;;3.37;;
23088;SDS011;11713;48.506;8.966;2023-01-13T17:01:34;9.93;;;4.97;;
23088;SDS011;11713;48.506;8.966;2023-01-13T17:04:02;8.87;;;4.30;;
23088;SDS011;11713;48.506;8.966;2023-01-13T17:06:40;8.17;;;3.07;;
23088;SDS011;11713;48.506;8.966;2023-01-13T17:09:17;6.63;;;2.57;;
23088;SDS011;11713;48.506;8.966;2023-01-13T17:11:45;6.43;;;2.70;;
23088;SDS011;11713;48.506;8.966;2023-01-13T17:14:12;6.50;;;3.23;;
23088;SDS011;11713;48.506;8.966;2023-01-13T17:16:39;7.33;;;2.93;;
23088;SDS011;11713;48.506;8.966;2023-01-13T17:19:06;9.20;;;2.47;;
23088;SDS011;11713;48.506;8.966;2023-01-13T17:21:32;4.90;;;2.40;;
23088;SDS011;11713;48.506;8.966;2023-01-13T17:23:58;5.83;;;2.40;;
23088;SDS011;11713;48.506;8.966;2023-01-13T17:26:45;7.27;;;2.60;;
23088;SDS011;11713;48.506;8.966;2023-01-13T17:29:14;5.23;;;2.10;;
23088;SDS011;11713;48.506;8.966;2023-01-13T17:31:42;8.43;;;2.53;;
23088;SDS011;11713;48.506;8.966;2023-01-13T17:34:08;3.17;;;1.90;;